Terminal Aerodrome Forecast
Issued by NWS Louisville, KY

Home | Current Version | Previous Version | Text Only | Print | Product List | Glossary On
Versions: 1 2 3 4 5 6 7 8 9 10 11 12
506
FTUS43 KLMK 100522
TAFBWG
TAF
KBWG 100522Z 1006/1106 VRB03KT P6SM FEW250
     FM101400 22015G24KT P6SM SCT200
     FM102300 23007KT P6SM SCT150=

USA.gov is the U.S. government's official web portal to all federal, state and local government web resources and services.